sensor_id;sensor_type;location;lat;lon;timestamp;P1;durP1;ratioP1;P2;durP2;ratioP2
3865;SDS011;1948;53.250;10.412;2022-10-23T00:01:49;18.03;;;10.70;;
3865;SDS011;1948;53.250;10.412;2022-10-23T00:04:22;21.60;;;10.87;;
3865;SDS011;1948;53.250;10.412;2022-10-23T00:06:54;23.07;;;11.00;;
3865;SDS011;1948;53.250;10.412;2022-10-23T00:09:23;23.63;;;10.40;;
3865;SDS011;1948;53.250;10.412;2022-10-23T00:11:50;18.67;;;10.20;;
3865;SDS011;1948;53.250;10.412;2022-10-23T00:14:21;23.27;;;10.30;;
3865;SDS011;1948;53.250;10.412;2022-10-23T00:16:52;26.97;;;10.57;;
3865;SDS011;1948;53.250;10.412;2022-10-23T00:19:21;24.53;;;10.60;;
3865;SDS011;1948;53.250;10.412;2022-10-23T00:21:48;12.97;;;10.60;;
3865;SDS011;1948;53.250;10.412;2022-10-23T00:24:15;23.00;;;10.23;;
3865;SDS011;1948;53.250;10.412;2022-10-23T00:26:42;22.00;;;11.37;;
3865;SDS011;1948;53.250;10.412;2022-10-23T00:29:11;28.10;;;9.80;;
3865;SDS011;1948;53.250;10.412;2022-10-23T00:31:40;21.53;;;10.50;;
3865;SDS011;1948;53.250;10.412;2022-10-23T00:34:09;23.57;;;10.40;;
3865;SDS011;1948;53.250;10.412;2022-10-23T00:36:36;19.03;;;10.43;;
3865;SDS011;1948;53.250;10.412;2022-10-23T00:39:04;24.67;;;10.80;;
3865;SDS011;1948;53.250;10.412;2022-10-23T00:41:32;29.20;;;11.40;;
3865;SDS011;1948;53.250;10.412;2022-10-23T00:46:55;15.53;;;10.90;;
3865;SDS011;1948;53.250;10.412;2022-10-23T00:49:23;23.77;;;11.30;;
3865;SDS011;1948;53.250;10.412;2022-10-23T00:51:51;14.27;;;11.50;;
3865;SDS011;1948;53.250;10.412;2022-10-23T00:54:24;18.60;;;11.27;;
3865;SDS011;1948;53.250;10.412;2022-10-23T00:56:59;26.03;;;12.53;;
3865;SDS011;1948;53.250;10.412;2022-10-23T00:59:29;15.70;;;10.37;;
3865;SDS011;1948;53.250;10.412;2022-10-23T01:02:04;20.63;;;11.37;;
3865;SDS011;1948;53.250;10.412;2022-10-23T01:04:31;21.17;;;11.77;;
3865;SDS011;1948;53.250;10.412;2022-10-23T01:07:13;26.40;;;11.60;;
3865;SDS011;1948;53.250;10.412;2022-10-23T01:13:10;31.93;;;9.23;;
3865;SDS011;1948;53.250;10.412;2022-10-23T01:18:51;23.77;;;10.47;;
3865;SDS011;1948;53.250;10.412;2022-10-23T01:27:08;20.13;;;9.90;;
3865;SDS011;1948;53.250;10.412;2022-10-23T01:32:22;14.37;;;9.50;;
3865;SDS011;1948;53.250;10.412;2022-10-23T01:37:48;29.97;;;10.90;;
3865;SDS011;1948;53.250;10.412;2022-10-23T01:40:29;23.17;;;9.80;;
3865;SDS011;1948;53.250;10.412;2022-10-23T01:43:12;14.93;;;8.80;;
3865;SDS011;1948;53.250;10.412;2022-10-23T01:45:53;22.40;;;9.70;;
3865;SDS011;1948;53.250;10.412;2022-10-23T01:48:28;19.83;;;10.17;;
3865;SDS011;1948;53.250;10.412;2022-10-23T01:50:58;18.97;;;9.30;;
3865;SDS011;1948;53.250;10.412;2022-10-23T01:53:29;11.10;;;8.50;;
3865;SDS011;1948;53.250;10.412;2022-10-23T01:56:00;25.33;;;8.80;;
3865;SDS011;1948;53.250;10.412;2022-10-23T01:58:34;15.70;;;8.30;;
3865;SDS011;1948;53.250;10.412;2022-10-23T02:01:03;13.57;;;8.60;;
3865;SDS011;1948;53.250;10.412;2022-10-23T02:03:35;27.03;;;10.07;;
3865;SDS011;1948;53.250;10.412;2022-10-23T02:06:04;12.73;;;9.37;;
3865;SDS011;1948;53.250;10.412;2022-10-23T02:08:31;14.40;;;9.70;;
3865;SDS011;1948;53.250;10.412;2022-10-23T02:11:31;17.47;;;9.37;;
3865;SDS011;1948;53.250;10.412;2022-10-23T02:16:36;23.40;;;10.17;;
3865;SDS011;1948;53.250;10.412;2022-10-23T02:22:27;23.37;;;10.20;;
3865;SDS011;1948;53.250;10.412;2022-10-23T02:27:39;17.77;;;8.63;;
3865;SDS011;1948;53.250;10.412;2022-10-23T02:30:16;19.40;;;9.60;;
3865;SDS011;1948;53.250;10.412;2022-10-23T02:32:51;18.30;;;8.80;;
3865;SDS011;1948;53.250;10.412;2022-10-23T02:35:24;16.10;;;9.20;;
3865;SDS011;1948;53.250;10.412;2022-10-23T02:37:55;21.33;;;9.57;;
3865;SDS011;1948;53.250;10.412;2022-10-23T02:40:29;26.53;;;9.33;;
3865;SDS011;1948;53.250;10.412;2022-10-23T02:43:14;20.43;;;8.47;;
3865;SDS011;1948;53.250;10.412;2022-10-23T02:45:54;17.80;;;9.47;;
3865;SDS011;1948;53.250;10.412;2022-10-23T02:48:32;23.33;;;9.07;;
3865;SDS011;1948;53.250;10.412;2022-10-23T02:51:17;16.23;;;9.00;;
3865;SDS011;1948;53.250;10.412;2022-10-23T02:54:13;21.63;;;8.60;;
3865;SDS011;1948;53.250;10.412;2022-10-23T03:00:04;17.87;;;9.83;;
3865;SDS011;1948;53.250;10.412;2022-10-23T03:05:55;16.00;;;9.00;;
3865;SDS011;1948;53.250;10.412;2022-10-23T03:08:22;19.67;;;10.13;;
3865;SDS011;1948;53.250;10.412;2022-10-23T03:10:52;33.67;;;8.90;;
3865;SDS011;1948;53.250;10.412;2022-10-23T03:13:23;20.10;;;9.53;;
3865;SDS011;1948;53.250;10.412;2022-10-23T03:15:51;17.13;;;9.70;;
3865;SDS011;1948;53.250;10.412;2022-10-23T03:18:17;15.43;;;9.33;;
3865;SDS011;1948;53.250;10.412;2022-10-23T03:20:44;21.23;;;10.00;;
3865;SDS011;1948;53.250;10.412;2022-10-23T03:23:11;19.47;;;8.70;;
3865;SDS011;1948;53.250;10.412;2022-10-23T03:25:39;22.33;;;9.30;;
3865;SDS011;1948;53.250;10.412;2022-10-23T03:28:06;21.00;;;9.70;;
3865;SDS011;1948;53.250;10.412;2022-10-23T03:30:37;12.10;;;9.30;;
3865;SDS011;1948;53.250;10.412;2022-10-23T03:33:04;16.73;;;8.83;;
3865;SDS011;1948;53.250;10.412;2022-10-23T03:35:33;10.13;;;8.67;;
3865;SDS011;1948;53.250;10.412;2022-10-23T03:38:00;20.33;;;10.13;;
3865;SDS011;1948;53.250;10.412;2022-10-23T03:40:27;16.00;;;9.40;;
3865;SDS011;1948;53.250;10.412;2022-10-23T03:42:58;18.27;;;9.13;;
3865;SDS011;1948;53.250;10.412;2022-10-23T03:45:25;12.93;;;8.70;;
3865;SDS011;1948;53.250;10.412;2022-10-23T03:47:52;22.07;;;8.77;;
3865;SDS011;1948;53.250;10.412;2022-10-23T03:50:19;25.70;;;10.00;;
3865;SDS011;1948;53.250;10.412;2022-10-23T03:52:46;19.57;;;8.60;;
3865;SDS011;1948;53.250;10.412;2022-10-23T03:55:15;10.83;;;8.17;;
3865;SDS011;1948;53.250;10.412;2022-10-23T03:57:47;9.00;;;8.10;;
3865;SDS011;1948;53.250;10.412;2022-10-23T04:00:14;11.80;;;9.03;;
3865;SDS011;1948;53.250;10.412;2022-10-23T04:02:42;17.30;;;8.60;;
3865;SDS011;1948;53.250;10.412;2022-10-23T04:05:09;12.30;;;8.90;;
3865;SDS011;1948;53.250;10.412;2022-10-23T04:07:36;16.77;;;9.73;;
3865;SDS011;1948;53.250;10.412;2022-10-23T04:10:03;15.00;;;8.97;;
3865;SDS011;1948;53.250;10.412;2022-10-23T04:12:32;19.87;;;8.70;;
3865;SDS011;1948;53.250;10.412;2022-10-23T04:15:02;14.70;;;8.90;;
3865;SDS011;1948;53.250;10.412;2022-10-23T04:17:32;12.03;;;9.90;;
3865;SDS011;1948;53.250;10.412;2022-10-23T04:19:59;10.03;;;9.03;;
3865;SDS011;1948;53.250;10.412;2022-10-23T04:22:25;14.33;;;8.90;;
3865;SDS011;1948;53.250;10.412;2022-10-23T04:24:53;12.70;;;9.90;;
3865;SDS011;1948;53.250;10.412;2022-10-23T04:27:21;13.63;;;9.23;;
3865;SDS011;1948;53.250;10.412;2022-10-23T04:29:50;18.97;;;9.07;;
3865;SDS011;1948;53.250;10.412;2022-10-23T04:32:23;13.37;;;8.87;;
3865;SDS011;1948;53.250;10.412;2022-10-23T04:34:50;21.43;;;8.70;;
3865;SDS011;1948;53.250;10.412;2022-10-23T04:37:19;17.40;;;8.67;;
3865;SDS011;1948;53.250;10.412;2022-10-23T04:39:51;27.50;;;9.17;;
3865;SDS011;1948;53.250;10.412;2022-10-23T04:42:18;12.87;;;8.77;;
3865;SDS011;1948;53.250;10.412;2022-10-23T04:44:47;16.83;;;8.27;;
3865;SDS011;1948;53.250;10.412;2022-10-23T04:47:16;11.37;;;8.70;;
3865;SDS011;1948;53.250;10.412;2022-10-23T04:49:43;20.50;;;10.17;;
3865;SDS011;1948;53.250;10.412;2022-10-23T04:52:10;14.10;;;9.10;;
3865;SDS011;1948;53.250;10.412;2022-10-23T04:54:40;17.80;;;8.73;;
3865;SDS011;1948;53.250;10.412;2022-10-23T04:57:06;22.27;;;8.57;;
3865;SDS011;1948;53.250;10.412;2022-10-23T04:59:33;14.00;;;9.13;;
3865;SDS011;1948;53.250;10.412;2022-10-23T05:02:00;18.33;;;8.40;;
3865;SDS011;1948;53.250;10.412;2022-10-23T05:04:27;15.70;;;8.23;;
3865;SDS011;1948;53.250;10.412;2022-10-23T05:06:56;17.93;;;8.70;;
3865;SDS011;1948;53.250;10.412;2022-10-23T05:09:26;14.20;;;8.27;;
3865;SDS011;1948;53.250;10.412;2022-10-23T05:11:55;21.17;;;8.60;;
3865;SDS011;1948;53.250;10.412;2022-10-23T05:14:24;9.63;;;8.73;;
3865;SDS011;1948;53.250;10.412;2022-10-23T05:16:58;13.40;;;9.47;;
3865;SDS011;1948;53.250;10.412;2022-10-23T05:19:35;12.67;;;8.63;;
3865;SDS011;1948;53.250;10.412;2022-10-23T05:22:07;20.33;;;9.40;;
3865;SDS011;1948;53.250;10.412;2022-10-23T05:24:36;10.97;;;8.00;;
3865;SDS011;1948;53.250;10.412;2022-10-23T05:27:05;9.17;;;8.10;;
3865;SDS011;1948;53.250;10.412;2022-10-23T05:29:32;16.50;;;8.13;;
3865;SDS011;1948;53.250;10.412;2022-10-23T05:32:00;19.47;;;8.10;;
3865;SDS011;1948;53.250;10.412;2022-10-23T05:34:33;9.47;;;8.03;;
3865;SDS011;1948;53.250;10.412;2022-10-23T05:37:02;19.87;;;8.80;;
3865;SDS011;1948;53.250;10.412;2022-10-23T05:39:34;16.67;;;8.57;;
3865;SDS011;1948;53.250;10.412;2022-10-23T05:42:01;14.03;;;8.03;;
3865;SDS011;1948;53.250;10.412;2022-10-23T05:44:28;14.47;;;8.60;;
3865;SDS011;1948;53.250;10.412;2022-10-23T05:46:58;34.90;;;10.53;;
3865;SDS011;1948;53.250;10.412;2022-10-23T05:49:27;11.70;;;8.83;;
3865;SDS011;1948;53.250;10.412;2022-10-23T05:51:56;18.57;;;9.50;;
3865;SDS011;1948;53.250;10.412;2022-10-23T05:54:23;18.80;;;8.90;;
3865;SDS011;1948;53.250;10.412;2022-10-23T05:56:50;20.90;;;9.60;;
3865;SDS011;1948;53.250;10.412;2022-10-23T05:59:17;14.23;;;8.80;;
3865;SDS011;1948;53.250;10.412;2022-10-23T06:01:48;12.07;;;8.47;;
3865;SDS011;1948;53.250;10.412;2022-10-23T06:04:15;16.63;;;8.90;;
3865;SDS011;1948;53.250;10.412;2022-10-23T06:06:45;13.93;;;8.73;;
3865;SDS011;1948;53.250;10.412;2022-10-23T06:09:14;13.47;;;8.70;;
3865;SDS011;1948;53.250;10.412;2022-10-23T06:11:46;30.00;;;16.23;;
3865;SDS011;1948;53.250;10.412;2022-10-23T06:14:16;14.90;;;9.07;;
3865;SDS011;1948;53.250;10.412;2022-10-23T06:16:43;13.10;;;9.23;;
3865;SDS011;1948;53.250;10.412;2022-10-23T06:19:12;12.10;;;8.83;;
3865;SDS011;1948;53.250;10.412;2022-10-23T06:21:39;22.87;;;8.90;;
3865;SDS011;1948;53.250;10.412;2022-10-23T06:24:10;46.73;;;9.37;;
3865;SDS011;1948;53.250;10.412;2022-10-23T06:26:37;21.17;;;9.07;;
3865;SDS011;1948;53.250;10.412;2022-10-23T06:29:04;17.03;;;9.60;;
3865;SDS011;1948;53.250;10.412;2022-10-23T06:31:31;17.87;;;9.77;;
3865;SDS011;1948;53.250;10.412;2022-10-23T06:34:00;10.93;;;8.63;;
3865;SDS011;1948;53.250;10.412;2022-10-23T06:36:31;19.40;;;10.17;;
3865;SDS011;1948;53.250;10.412;2022-10-23T06:39:03;14.80;;;10.00;;
3865;SDS011;1948;53.250;10.412;2022-10-23T06:41:33;19.93;;;9.70;;
3865;SDS011;1948;53.250;10.412;2022-10-23T06:44:09;21.57;;;10.97;;
3865;SDS011;1948;53.250;10.412;2022-10-23T06:46:39;23.20;;;9.63;;
3865;SDS011;1948;53.250;10.412;2022-10-23T06:49:05;14.00;;;9.70;;
3865;SDS011;1948;53.250;10.412;2022-10-23T06:51:32;15.73;;;9.60;;
3865;SDS011;1948;53.250;10.412;2022-10-23T06:53:59;22.13;;;9.93;;
3865;SDS011;1948;53.250;10.412;2022-10-23T06:56:28;18.43;;;9.40;;
3865;SDS011;1948;53.250;10.412;2022-10-23T06:58:57;19.17;;;10.20;;
3865;SDS011;1948;53.250;10.412;2022-10-23T07:01:24;11.07;;;9.80;;
3865;SDS011;1948;53.250;10.412;2022-10-23T07:03:51;10.40;;;8.97;;
3865;SDS011;1948;53.250;10.412;2022-10-23T07:06:20;17.20;;;9.00;;
3865;SDS011;1948;53.250;10.412;2022-10-23T07:08:47;18.00;;;10.70;;
3865;SDS011;1948;53.250;10.412;2022-10-23T07:11:14;22.53;;;9.33;;
3865;SDS011;1948;53.250;10.412;2022-10-23T07:13:41;20.03;;;9.60;;
3865;SDS011;1948;53.250;10.412;2022-10-23T07:16:13;11.83;;;9.03;;
3865;SDS011;1948;53.250;10.412;2022-10-23T07:18:45;15.10;;;8.13;;
3865;SDS011;1948;53.250;10.412;2022-10-23T07:21:14;13.60;;;8.13;;
3865;SDS011;1948;53.250;10.412;2022-10-23T07:23:43;31.27;;;9.37;;
3865;SDS011;1948;53.250;10.412;2022-10-23T07:26:11;15.13;;;8.10;;
3865;SDS011;1948;53.250;10.412;2022-10-23T07:28:41;15.20;;;8.33;;
3865;SDS011;1948;53.250;10.412;2022-10-23T07:31:09;10.70;;;8.90;;
3865;SDS011;1948;53.250;10.412;2022-10-23T07:33:39;21.40;;;8.53;;
3865;SDS011;1948;53.250;10.412;2022-10-23T07:36:09;16.83;;;8.03;;
3865;SDS011;1948;53.250;10.412;2022-10-23T07:38:36;13.93;;;7.37;;
3865;SDS011;1948;53.250;10.412;2022-10-23T07:41:03;17.03;;;7.30;;
3865;SDS011;1948;53.250;10.412;2022-10-23T07:43:39;7.87;;;7.20;;
3865;SDS011;1948;53.250;10.412;2022-10-23T07:46:06;7.97;;;7.00;;
3865;SDS011;1948;53.250;10.412;2022-10-23T07:48:36;13.63;;;7.47;;
3865;SDS011;1948;53.250;10.412;2022-10-23T07:51:05;18.57;;;7.80;;
3865;SDS011;1948;53.250;10.412;2022-10-23T07:53:36;13.60;;;7.73;;
3865;SDS011;1948;53.250;10.412;2022-10-23T07:56:16;11.30;;;7.23;;
3865;SDS011;1948;53.250;10.412;2022-10-23T07:58:49;6.97;;;6.43;;
3865;SDS011;1948;53.250;10.412;2022-10-23T08:01:27;14.23;;;7.30;;
3865;SDS011;1948;53.250;10.412;2022-10-23T08:04:04;13.63;;;6.60;;
3865;SDS011;1948;53.250;10.412;2022-10-23T08:06:34;10.87;;;6.97;;
3865;SDS011;1948;53.250;10.412;2022-10-23T08:09:01;10.77;;;5.83;;
3865;SDS011;1948;53.250;10.412;2022-10-23T08:11:32;8.63;;;6.00;;
3865;SDS011;1948;53.250;10.412;2022-10-23T08:14:01;13.17;;;6.40;;
3865;SDS011;1948;53.250;10.412;2022-10-23T08:16:35;15.43;;;6.60;;
3865;SDS011;1948;53.250;10.412;2022-10-23T08:19:04;14.50;;;6.20;;
3865;SDS011;1948;53.250;10.412;2022-10-23T08:21:36;14.90;;;6.20;;
3865;SDS011;1948;53.250;10.412;2022-10-23T08:24:04;6.00;;;5.50;;
3865;SDS011;1948;53.250;10.412;2022-10-23T08:26:38;12.90;;;5.80;;
3865;SDS011;1948;53.250;10.412;2022-10-23T08:29:05;32.67;;;6.10;;
3865;SDS011;1948;53.250;10.412;2022-10-23T08:31:37;15.70;;;5.47;;
3865;SDS011;1948;53.250;10.412;2022-10-23T08:34:08;7.40;;;5.63;;
3865;SDS011;1948;53.250;10.412;2022-10-23T08:36:35;10.50;;;5.10;;
3865;SDS011;1948;53.250;10.412;2022-10-23T08:39:04;9.67;;;6.10;;
3865;SDS011;1948;53.250;10.412;2022-10-23T08:41:32;8.23;;;5.03;;
3865;SDS011;1948;53.250;10.412;2022-10-23T08:49:48;13.33;;;5.80;;
3865;SDS011;1948;53.250;10.412;2022-10-23T08:52:19;15.83;;;5.73;;
3865;SDS011;1948;53.250;10.412;2022-10-23T08:58:38;8.63;;;5.77;;
3865;SDS011;1948;53.250;10.412;2022-10-23T09:00:42;10.80;;;5.00;;
3865;SDS011;1948;53.250;10.412;2022-10-23T09:03:12;10.33;;;6.00;;
3865;SDS011;1948;53.250;10.412;2022-10-23T09:08:33;9.20;;;5.37;;
3865;SDS011;1948;53.250;10.412;2022-10-23T09:11:32;10.63;;;4.77;;
3865;SDS011;1948;53.250;10.412;2022-10-23T09:14:29;16.80;;;4.50;;
3865;SDS011;1948;53.250;10.412;2022-10-23T09:17:22;6.43;;;5.00;;
3865;SDS011;1948;53.250;10.412;2022-10-23T09:19:59;16.03;;;5.30;;
3865;SDS011;1948;53.250;10.412;2022-10-23T09:23:03;7.73;;;4.40;;
3865;SDS011;1948;53.250;10.412;2022-10-23T09:25:41;11.33;;;4.80;;
3865;SDS011;1948;53.250;10.412;2022-10-23T09:28:18;14.33;;;4.93;;
3865;SDS011;1948;53.250;10.412;2022-10-23T09:30:51;10.87;;;4.40;;
3865;SDS011;1948;53.250;10.412;2022-10-23T09:33:31;6.20;;;4.13;;
3865;SDS011;1948;53.250;10.412;2022-10-23T09:36:03;12.93;;;4.07;;
3865;SDS011;1948;53.250;10.412;2022-10-23T09:41:09;16.50;;;4.30;;
3865;SDS011;1948;53.250;10.412;2022-10-23T09:43:45;9.47;;;3.70;;
3865;SDS011;1948;53.250;10.412;2022-10-23T09:46:13;14.03;;;4.10;;
3865;SDS011;1948;53.250;10.412;2022-10-23T09:48:40;4.57;;;3.73;;
3865;SDS011;1948;53.250;10.412;2022-10-23T09:51:16;6.40;;;3.27;;
3865;SDS011;1948;53.250;10.412;2022-10-23T09:53:53;4.97;;;3.33;;
3865;SDS011;1948;53.250;10.412;2022-10-23T09:56:24;12.20;;;4.10;;
3865;SDS011;1948;53.250;10.412;2022-10-23T09:59:00;8.43;;;3.40;;
3865;SDS011;1948;53.250;10.412;2022-10-23T10:01:45;16.73;;;3.90;;
3865;SDS011;1948;53.250;10.412;2022-10-23T10:04:13;9.30;;;3.50;;
3865;SDS011;1948;53.250;10.412;2022-10-23T10:06:39;10.43;;;3.37;;
3865;SDS011;1948;53.250;10.412;2022-10-23T10:09:14;4.47;;;3.10;;
3865;SDS011;1948;53.250;10.412;2022-10-23T10:11:49;10.83;;;3.77;;
3865;SDS011;1948;53.250;10.412;2022-10-23T10:20:45;8.53;;;3.83;;
3865;SDS011;1948;53.250;10.412;2022-10-23T10:24:07;17.63;;;4.87;;
3865;SDS011;1948;53.250;10.412;2022-10-23T10:26:29;21.50;;;3.90;;
3865;SDS011;1948;53.250;10.412;2022-10-23T10:35:09;8.77;;;4.00;;
3865;SDS011;1948;53.250;10.412;2022-10-23T10:43:58;16.10;;;4.53;;
3865;SDS011;1948;53.250;10.412;2022-10-23T10:46:55;10.80;;;4.70;;
3865;SDS011;1948;53.250;10.412;2022-10-23T10:55:32;10.30;;;4.70;;
3865;SDS011;1948;53.250;10.412;2022-10-23T10:58:12;10.03;;;4.13;;
3865;SDS011;1948;53.250;10.412;2022-10-23T11:03:57;29.67;;;3.90;;
3865;SDS011;1948;53.250;10.412;2022-10-23T11:06:40;4.77;;;3.37;;
3865;SDS011;1948;53.250;10.412;2022-10-23T11:09:29;8.37;;;3.97;;
3865;SDS011;1948;53.250;10.412;2022-10-23T11:11:57;6.00;;;3.40;;
3865;SDS011;1948;53.250;10.412;2022-10-23T11:14:25;5.33;;;2.87;;
3865;SDS011;1948;53.250;10.412;2022-10-23T11:17:07;14.67;;;3.83;;
3865;SDS011;1948;53.250;10.412;2022-10-23T11:19:46;15.80;;;3.17;;
3865;SDS011;1948;53.250;10.412;2022-10-23T11:25:19;6.47;;;3.13;;
3865;SDS011;1948;53.250;10.412;2022-10-23T11:31:37;6.27;;;2.90;;
3865;SDS011;1948;53.250;10.412;2022-10-23T11:36:57;10.87;;;2.97;;
3865;SDS011;1948;53.250;10.412;2022-10-23T11:39:27;12.90;;;3.90;;
3865;SDS011;1948;53.250;10.412;2022-10-23T11:52:36;16.03;;;3.33;;
3865;SDS011;1948;53.250;10.412;2022-10-23T12:01:25;8.67;;;2.80;;
3865;SDS011;1948;53.250;10.412;2022-10-23T12:06:48;5.83;;;2.57;;
3865;SDS011;1948;53.250;10.412;2022-10-23T12:09:23;6.80;;;2.80;;
3865;SDS011;1948;53.250;10.412;2022-10-23T12:12:16;2.90;;;2.70;;
3865;SDS011;1948;53.250;10.412;2022-10-23T12:15:07;4.83;;;2.63;;
3865;SDS011;1948;53.250;10.412;2022-10-23T12:17:35;3.80;;;2.33;;
3865;SDS011;1948;53.250;10.412;2022-10-23T12:34:58;5.70;;;2.77;;
3865;SDS011;1948;53.250;10.412;2022-10-23T12:40:25;13.50;;;2.60;;
3865;SDS011;1948;53.250;10.412;2022-10-23T12:42:56;9.00;;;2.97;;
3865;SDS011;1948;53.250;10.412;2022-10-23T12:45:26;2.63;;;2.27;;
3865;SDS011;1948;53.250;10.412;2022-10-23T12:48:17;5.13;;;3.20;;
3865;SDS011;1948;53.250;10.412;2022-10-23T12:50:47;6.80;;;2.97;;
3865;SDS011;1948;53.250;10.412;2022-10-23T12:53:17;9.60;;;2.60;;
3865;SDS011;1948;53.250;10.412;2022-10-23T12:58:31;3.97;;;2.50;;
3865;SDS011;1948;53.250;10.412;2022-10-23T13:01:01;4.70;;;2.57;;
3865;SDS011;1948;53.250;10.412;2022-10-23T13:03:30;3.17;;;2.33;;
3865;SDS011;1948;53.250;10.412;2022-10-23T13:06:01;2.53;;;2.37;;
3865;SDS011;1948;53.250;10.412;2022-10-23T13:08:33;2.63;;;2.13;;
3865;SDS011;1948;53.250;10.412;2022-10-23T13:11:12;6.87;;;2.87;;
3865;SDS011;1948;53.250;10.412;2022-10-23T13:13:46;21.47;;;2.87;;
3865;SDS011;1948;53.250;10.412;2022-10-23T13:16:24;17.33;;;4.10;;
3865;SDS011;1948;53.250;10.412;2022-10-23T13:18:54;7.47;;;2.77;;
3865;SDS011;1948;53.250;10.412;2022-10-23T13:21:24;4.50;;;2.60;;
3865;SDS011;1948;53.250;10.412;2022-10-23T13:23:55;3.27;;;2.40;;
3865;SDS011;1948;53.250;10.412;2022-10-23T13:34:56;3.07;;;2.70;;
3865;SDS011;1948;53.250;10.412;2022-10-23T13:37:45;10.47;;;4.07;;
3865;SDS011;1948;53.250;10.412;2022-10-23T13:40:31;5.53;;;3.10;;
3865;SDS011;1948;53.250;10.412;2022-10-23T13:42:58;6.40;;;3.13;;
3865;SDS011;1948;53.250;10.412;2022-10-23T13:45:25;12.53;;;3.33;;
3865;SDS011;1948;53.250;10.412;2022-10-23T13:47:53;14.70;;;4.10;;
3865;SDS011;1948;53.250;10.412;2022-10-23T13:50:22;7.20;;;2.90;;
3865;SDS011;1948;53.250;10.412;2022-10-23T13:52:52;4.73;;;3.20;;
3865;SDS011;1948;53.250;10.412;2022-10-23T13:55:20;10.73;;;3.40;;
3865;SDS011;1948;53.250;10.412;2022-10-23T13:57:52;4.57;;;2.70;;
3865;SDS011;1948;53.250;10.412;2022-10-23T14:00:18;6.00;;;3.10;;
3865;SDS011;1948;53.250;10.412;2022-10-23T14:02:45;9.00;;;3.80;;
3865;SDS011;1948;53.250;10.412;2022-10-23T14:05:13;24.40;;;3.20;;
3865;SDS011;1948;53.250;10.412;2022-10-23T14:07:44;5.57;;;3.10;;
3865;SDS011;1948;53.250;10.412;2022-10-23T14:10:11;4.07;;;3.70;;
3865;SDS011;1948;53.250;10.412;2022-10-23T14:12:42;7.20;;;3.17;;
3865;SDS011;1948;53.250;10.412;2022-10-23T14:15:12;7.87;;;3.17;;
3865;SDS011;1948;53.250;10.412;2022-10-23T14:17:41;4.83;;;3.87;;
3865;SDS011;1948;53.250;10.412;2022-10-23T14:20:11;7.50;;;4.23;;
3865;SDS011;1948;53.250;10.412;2022-10-23T14:22:38;10.93;;;4.20;;
3865;SDS011;1948;53.250;10.412;2022-10-23T14:25:08;5.40;;;3.80;;
3865;SDS011;1948;53.250;10.412;2022-10-23T14:27:35;9.07;;;4.30;;
3865;SDS011;1948;53.250;10.412;2022-10-23T14:30:02;11.23;;;4.07;;
3865;SDS011;1948;53.250;10.412;2022-10-23T14:32:30;15.63;;;4.10;;
3865;SDS011;1948;53.250;10.412;2022-10-23T14:34:57;4.87;;;3.80;;
3865;SDS011;1948;53.250;10.412;2022-10-23T14:37:29;13.50;;;4.40;;
3865;SDS011;1948;53.250;10.412;2022-10-23T14:39:56;11.33;;;4.60;;
3865;SDS011;1948;53.250;10.412;2022-10-23T14:42:24;5.70;;;4.07;;
3865;SDS011;1948;53.250;10.412;2022-10-23T14:44:59;12.03;;;3.37;;
3865;SDS011;1948;53.250;10.412;2022-10-23T14:47:29;12.20;;;4.07;;
3865;SDS011;1948;53.250;10.412;2022-10-23T14:49:57;3.87;;;3.40;;
3865;SDS011;1948;53.250;10.412;2022-10-23T14:52:26;11.97;;;3.73;;
3865;SDS011;1948;53.250;10.412;2022-10-23T14:54:55;14.07;;;4.50;;
3865;SDS011;1948;53.250;10.412;2022-10-23T14:57:26;15.23;;;4.40;;
3865;SDS011;1948;53.250;10.412;2022-10-23T14:59:55;6.27;;;4.00;;
3865;SDS011;1948;53.250;10.412;2022-10-23T15:02:22;4.20;;;3.80;;
3865;SDS011;1948;53.250;10.412;2022-10-23T15:04:49;9.07;;;4.17;;
3865;SDS011;1948;53.250;10.412;2022-10-23T15:07:16;8.60;;;3.80;;
3865;SDS011;1948;53.250;10.412;2022-10-23T15:09:43;6.37;;;3.80;;
3865;SDS011;1948;53.250;10.412;2022-10-23T15:12:12;7.70;;;4.00;;
3865;SDS011;1948;53.250;10.412;2022-10-23T15:14:39;8.27;;;4.30;;
3865;SDS011;1948;53.250;10.412;2022-10-23T15:17:08;4.57;;;3.80;;
3865;SDS011;1948;53.250;10.412;2022-10-23T15:19:40;17.67;;;4.50;;
3865;SDS011;1948;53.250;10.412;2022-10-23T15:22:07;6.53;;;3.83;;
3865;SDS011;1948;53.250;10.412;2022-10-23T15:24:34;13.20;;;4.93;;
3865;SDS011;1948;53.250;10.412;2022-10-23T15:27:01;17.93;;;4.43;;
3865;SDS011;1948;53.250;10.412;2022-10-23T15:29:35;8.10;;;4.80;;
3865;SDS011;1948;53.250;10.412;2022-10-23T15:32:04;19.73;;;4.30;;
3865;SDS011;1948;53.250;10.412;2022-10-23T15:34:32;17.03;;;4.60;;
3865;SDS011;1948;53.250;10.412;2022-10-23T15:37:02;19.37;;;4.53;;
3865;SDS011;1948;53.250;10.412;2022-10-23T15:39:30;13.93;;;4.50;;
3865;SDS011;1948;53.250;10.412;2022-10-23T15:42:04;6.27;;;4.50;;
3865;SDS011;1948;53.250;10.412;2022-10-23T15:44:33;6.57;;;4.10;;
3865;SDS011;1948;53.250;10.412;2022-10-23T15:47:00;10.43;;;4.70;;
3865;SDS011;1948;53.250;10.412;2022-10-23T15:49:30;4.50;;;4.07;;
3865;SDS011;1948;53.250;10.412;2022-10-23T15:52:00;8.47;;;4.10;;
3865;SDS011;1948;53.250;10.412;2022-10-23T15:54:28;4.20;;;3.90;;
3865;SDS011;1948;53.250;10.412;2022-10-23T15:56:58;7.03;;;4.50;;
3865;SDS011;1948;53.250;10.412;2022-10-23T15:59:27;9.17;;;3.83;;
3865;SDS011;1948;53.250;10.412;2022-10-23T16:01:57;16.77;;;5.20;;
3865;SDS011;1948;53.250;10.412;2022-10-23T16:04:24;18.20;;;5.40;;
3865;SDS011;1948;53.250;10.412;2022-10-23T16:06:56;8.90;;;4.43;;
3865;SDS011;1948;53.250;10.412;2022-10-23T16:09:26;12.53;;;4.50;;
3865;SDS011;1948;53.250;10.412;2022-10-23T16:11:55;11.03;;;4.50;;
3865;SDS011;1948;53.250;10.412;2022-10-23T16:14:24;8.43;;;4.13;;
3865;SDS011;1948;53.250;10.412;2022-10-23T16:16:53;9.40;;;4.67;;
3865;SDS011;1948;53.250;10.412;2022-10-23T16:19:23;18.50;;;4.60;;
3865;SDS011;1948;53.250;10.412;2022-10-23T16:21:52;12.43;;;3.97;;
3865;SDS011;1948;53.250;10.412;2022-10-23T16:24:26;9.00;;;4.30;;
3865;SDS011;1948;53.250;10.412;2022-10-23T16:26:53;7.50;;;4.27;;
3865;SDS011;1948;53.250;10.412;2022-10-23T16:29:23;12.00;;;4.23;;
3865;SDS011;1948;53.250;10.412;2022-10-23T16:31:51;6.20;;;4.13;;
3865;SDS011;1948;53.250;10.412;2022-10-23T16:34:21;14.60;;;4.93;;
3865;SDS011;1948;53.250;10.412;2022-10-23T16:36:48;13.30;;;4.83;;
3865;SDS011;1948;53.250;10.412;2022-10-23T16:39:18;4.67;;;4.17;;
3865;SDS011;1948;53.250;10.412;2022-10-23T16:41:48;10.03;;;4.87;;
3865;SDS011;1948;53.250;10.412;2022-10-23T16:44:18;9.00;;;4.43;;
3865;SDS011;1948;53.250;10.412;2022-10-23T16:46:48;10.93;;;3.60;;
3865;SDS011;1948;53.250;10.412;2022-10-23T16:49:19;19.67;;;4.33;;
3865;SDS011;1948;53.250;10.412;2022-10-23T16:51:46;9.17;;;4.20;;
3865;SDS011;1948;53.250;10.412;2022-10-23T16:54:13;4.43;;;4.03;;
3865;SDS011;1948;53.250;10.412;2022-10-23T16:56:43;7.20;;;4.43;;
3865;SDS011;1948;53.250;10.412;2022-10-23T16:59:13;9.53;;;4.37;;
3865;SDS011;1948;53.250;10.412;2022-10-23T17:01:40;18.13;;;4.13;;
3865;SDS011;1948;53.250;10.412;2022-10-23T17:04:07;9.80;;;4.60;;
3865;SDS011;1948;53.250;10.412;2022-10-23T17:06:34;9.60;;;4.00;;
3865;SDS011;1948;53.250;10.412;2022-10-23T17:09:04;14.80;;;4.77;;
3865;SDS011;1948;53.250;10.412;2022-10-23T17:11:34;5.17;;;3.70;;
3865;SDS011;1948;53.250;10.412;2022-10-23T17:14:09;10.90;;;4.53;;
3865;SDS011;1948;53.250;10.412;2022-10-23T17:16:42;11.73;;;4.87;;
3865;SDS011;1948;53.250;10.412;2022-10-23T17:19:12;15.33;;;6.70;;
3865;SDS011;1948;53.250;10.412;2022-10-23T17:22:03;8.93;;;5.07;;
3865;SDS011;1948;53.250;10.412;2022-10-23T17:24:36;11.83;;;4.77;;
3865;SDS011;1948;53.250;10.412;2022-10-23T17:27:07;8.33;;;3.90;;
3865;SDS011;1948;53.250;10.412;2022-10-23T17:29:37;4.03;;;3.73;;
3865;SDS011;1948;53.250;10.412;2022-10-23T17:32:06;6.53;;;4.27;;